CheckWX is a tool to help pilots better visualize weather data.  It is not intended as a substitute for an official pre-flight weather briefing.

01:57:43 UTC

PTRO TAF
Babelthuap / Koror Airport
Babelthuap Island, Palau
PTRO 160042Z 1601/1624 06012KT P6SM VCSH SCT016 SCT050 BKN120 FM160300 06013G24KT P6SM VCSH SCT016 SCT050 TEMPO 1603/1606 3SM +SHRA BKN014 OVC025

Dec-16@
01:00 UTC

Dec-16 @ 01:00 UTC

Dec-16@
03:00 UTC

Dec-16 @ 03:00 UTC

PTRO 160042Z 1601/1624 06012KT P6SM VCSH SCT016 SCT050 BKN120
Wind
  • 060° at 12 KTS
Cloud Levels
  • Scattered at 1,600' AGL
  • Scattered at 5,000' AGL
  • Broken at 12,000' AGL

Dec-16@
03:00 UTC

Dec-16 @ 03:00 UTC

Dec-16@
06:00 UTC

Dec-16 @ 06:00 UTC

TEMPO 1603/1606 3SM +SHRA BKN014 OVC025

Temporary

Temporary Changes expected for less than half the time period

Conditions
Heavy Rain
Cloud Levels
  • Broken at 1,400' AGL
  • Overcast at 2,500' AGL

Dec-16@
03:00 UTC

Dec-16 @ 03:00 UTC

Dec-17@
00:00 UTC

Dec-17 @ 00:00 UTC

FM160300 06013G24KT P6SM VCSH SCT016 SCT050

From

From Standard forecast or significant change

Wind
  • 060° at 13 KTS
  • {Gusting to 24 KTS
Cloud Levels
  • Scattered at 1,600' AGL
  • Scattered at 5,000' AGL